createdAt,value
2019-04-20T00:01:11.721Z,22.87
2019-04-20T00:03:42.359Z,22.35
2019-04-20T00:06:11.158Z,23.52
2019-04-20T00:08:42.659Z,25.90
2019-04-20T00:11:17.952Z,24.20
2019-04-20T00:13:50.380Z,25.48
2019-04-20T00:16:12.624Z,27.22
2019-04-20T00:18:48.234Z,24.60
2019-04-20T00:21:30.910Z,25.00
2019-04-20T00:24:10.298Z,25.97
2019-04-20T00:27:04.882Z,24.05
2019-04-20T00:29:21.334Z,26.55
2019-04-20T00:31:45.743Z,25.57
2019-04-20T00:34:11.956Z,23.42
2019-04-20T00:36:34.945Z,27.73
2019-04-20T00:39:09.480Z,27.17
2019-04-20T00:41:44.121Z,24.40
2019-04-20T00:44:13.396Z,27.67
2019-04-20T00:46:53.518Z,27.35
2019-04-20T00:49:22.842Z,27.00
2019-04-20T00:52:11.031Z,27.25
2019-04-20T00:54:09.547Z,27.73
2019-04-20T00:56:39.268Z,26.12
2019-04-20T00:59:20.517Z,27.60
2019-04-20T01:02:01.015Z,27.13
2019-04-20T01:04:27.185Z,28.47
2019-04-20T01:07:00.111Z,26.20
2019-04-20T01:09:20.334Z,24.18
2019-04-20T01:11:50.136Z,26.27
2019-04-20T01:14:27.368Z,25.52
2019-04-20T01:16:56.899Z,25.48
2019-04-20T01:19:20.607Z,23.47
2019-04-20T01:21:57.874Z,21.33
2019-04-20T01:24:27.592Z,28.73
2019-04-20T01:26:55.117Z,27.48
2019-04-20T01:29:30.325Z,24.40
2019-04-20T01:32:05.781Z,26.45
2019-04-20T01:34:35.920Z,28.05
2019-04-20T01:37:11.692Z,26.12
2019-04-20T01:39:32.941Z,26.07
2019-04-20T01:41:54.044Z,29.65
2019-04-20T01:44:28.150Z,24.02
2019-04-20T01:46:58.193Z,25.27
2019-04-20T01:49:27.477Z,28.45
2019-04-20T01:52:03.776Z,28.23
2019-04-20T01:54:38.579Z,26.07
2019-04-20T01:57:12.832Z,26.87
2019-04-20T01:59:52.278Z,28.15
2019-04-20T02:02:20.076Z,27.07
2019-04-20T02:04:52.081Z,26.42
2019-04-20T02:07:28.203Z,30.45
2019-04-20T02:09:56.090Z,26.02
2019-04-20T02:12:25.365Z,23.73
2019-04-20T02:14:57.046Z,29.00
2019-04-20T02:17:30.073Z,23.40
2019-04-20T02:20:14.346Z,29.10
2019-04-20T02:22:42.190Z,35.83
2019-04-20T02:24:53.033Z,25.75
2019-04-20T02:27:30.852Z,25.68
2019-04-20T02:30:24.707Z,27.62
2019-04-20T02:33:03.646Z,27.58
2019-04-20T02:35:24.056Z,27.45
2019-04-20T02:38:12.242Z,26.65
2019-04-20T02:40:39.815Z,28.35
2019-04-20T02:43:15.027Z,25.57
2019-04-20T02:48:01.503Z,24.85
2019-04-20T02:53:15.642Z,35.17
2019-04-20T02:55:35.785Z,27.73
2019-04-20T02:58:05.127Z,32.13
2019-04-20T03:00:29.663Z,24.10
2019-04-20T03:02:46.065Z,29.95
2019-04-20T03:05:18.909Z,28.30
2019-04-20T03:07:57.465Z,27.32
2019-04-20T03:10:38.977Z,28.15
2019-04-20T03:12:56.659Z,24.63
2019-04-20T03:15:34.983Z,25.95
2019-04-20T03:17:57.468Z,26.25
2019-04-20T03:20:29.867Z,27.00
2019-04-20T03:23:17.288Z,29.65
2019-04-20T03:25:39.698Z,31.73
2019-04-20T03:28:05.148Z,27.50
2019-04-20T03:31:16.529Z,26.52
2019-04-20T03:35:45.988Z,25.65
2019-04-20T03:38:07.565Z,25.00
2019-04-20T03:40:29.943Z,25.88
2019-04-20T03:42:48.600Z,29.55
2019-04-20T03:45:21.099Z,26.55
2019-04-20T03:48:02.244Z,33.13
2019-04-20T03:50:40.897Z,26.40
2019-04-20T03:53:12.840Z,25.62
2019-04-20T03:55:44.534Z,25.88
2019-04-20T03:58:23.958Z,28.40
2019-04-20T04:00:55.468Z,26.20
2019-04-20T04:03:48.797Z,36.17
2019-04-20T04:06:09.579Z,27.25
2019-04-20T04:08:35.373Z,27.15
2019-04-20T04:11:18.861Z,34.73
2019-04-20T04:13:27.380Z,26.12
2019-04-20T04:16:02.545Z,25.70
2019-04-20T04:18:34.735Z,27.50
2019-04-20T04:21:01.968Z,26.40
2019-04-20T04:23:47.081Z,27.73
2019-04-20T04:26:18.721Z,26.48
2019-04-20T04:28:46.262Z,30.32
2019-04-20T04:31:17.644Z,29.80
2019-04-20T04:36:18.184Z,30.62
2019-04-20T04:38:56.126Z,31.35
2019-04-20T04:41:25.644Z,41.75
2019-04-20T04:43:49.846Z,31.50
2019-04-20T04:46:03.883Z,41.90
2019-04-20T04:48:37.507Z,34.60
2019-04-20T04:51:11.319Z,36.45
2019-04-20T04:53:44.267Z,40.45
2019-04-20T04:56:09.384Z,33.28
2019-04-20T04:58:34.771Z,38.55
2019-04-20T05:01:08.342Z,43.95
2019-04-20T05:03:54.038Z,38.58
2019-04-20T05:06:26.363Z,42.48
2019-04-20T05:08:48.924Z,36.48
2019-04-20T05:11:15.078Z,32.65
2019-04-20T05:13:50.556Z,42.62
2019-04-20T05:16:34.762Z,33.55
2019-04-20T05:19:11.534Z,34.50
2019-04-20T05:21:39.865Z,46.08
2019-04-20T05:24:07.555Z,39.83
2019-04-20T05:26:53.100Z,33.63
2019-04-20T05:29:08.437Z,36.42
2019-04-20T05:31:39.677Z,36.25
2019-04-20T05:34:29.536Z,34.18
2019-04-20T05:36:53.110Z,37.17
2019-04-20T05:39:31.169Z,33.80
2019-04-20T05:41:50.271Z,34.20
2019-04-20T05:44:17.250Z,32.55
2019-04-20T05:46:53.352Z,31.50
2019-04-20T05:49:27.025Z,30.37
2019-04-20T05:51:54.722Z,32.73
2019-04-20T05:54:25.567Z,30.65
2019-04-20T05:56:56.312Z,33.08
2019-04-20T05:59:27.860Z,30.75
2019-04-20T06:02:08.043Z,32.73
2019-04-20T06:04:42.679Z,30.50
2019-04-20T06:07:04.041Z,34.53
2019-04-20T06:09:29.551Z,38.48
2019-04-20T06:14:48.238Z,24.90
2019-04-20T06:17:21.275Z,27.32
2019-04-20T06:19:57.550Z,27.65
2019-04-20T06:22:31.419Z,26.70
2019-04-20T06:25:15.031Z,28.20
2019-04-20T06:27:37.889Z,38.53
2019-04-20T06:30:00.774Z,26.95
2019-04-20T06:32:55.152Z,21.33
2019-04-20T06:35:40.840Z,29.10
2019-04-20T06:38:05.350Z,25.08
2019-04-20T06:40:46.881Z,29.18
2019-04-20T06:43:02.225Z,23.27
2019-04-20T06:45:33.798Z,25.08
2019-04-20T06:47:57.871Z,25.68
2019-04-20T06:50:28.864Z,21.07
2019-04-20T06:53:18.601Z,24.60
2019-04-20T06:55:42.994Z,26.37
2019-04-20T06:58:12.707Z,19.87
2019-04-20T07:00:42.144Z,21.77
2019-04-20T07:03:17.776Z,20.77
2019-04-20T07:05:39.443Z,22.22
2019-04-20T07:08:29.085Z,27.62
2019-04-20T07:10:44.036Z,22.70
2019-04-20T07:13:07.744Z,23.90
2019-04-20T07:15:45.135Z,22.80
2019-04-20T07:18:16.666Z,23.77
2019-04-20T07:20:55.414Z,23.62
2019-04-20T07:23:29.246Z,20.10
2019-04-20T07:25:52.808Z,21.02
2019-04-20T07:28:29.196Z,18.07
2019-04-20T07:30:53.170Z,22.30
2019-04-20T07:33:24.585Z,19.48
2019-04-20T07:35:52.469Z,20.75
2019-04-20T07:38:30.911Z,21.37
2019-04-20T07:40:50.033Z,25.68
2019-04-20T07:43:19.754Z,28.70
2019-04-20T07:45:50.244Z,22.42
2019-04-20T07:48:20.847Z,25.02
2019-04-20T07:50:46.189Z,23.60
2019-04-20T07:53:21.450Z,24.20
2019-04-20T07:55:58.818Z,26.82
2019-04-20T07:58:20.343Z,21.05
2019-04-20T08:01:07.994Z,24.07
2019-04-20T08:03:33.780Z,22.60
2019-04-20T08:05:55.152Z,20.35
2019-04-20T08:08:32.722Z,21.93
2019-04-20T08:11:10.389Z,17.82
2019-04-20T08:16:08.401Z,19.57
2019-04-20T08:18:44.490Z,15.88
2019-04-20T08:21:09.894Z,16.23
2019-04-20T08:23:42.931Z,19.32
2019-04-20T08:26:03.935Z,15.65
2019-04-20T08:28:35.888Z,17.77
2019-04-20T08:31:31.188Z,18.00
2019-04-20T08:34:38.013Z,14.65
2019-04-20T08:36:52.616Z,20.75
2019-04-20T08:39:37.919Z,15.90
2019-04-20T08:41:56.375Z,11.45
2019-04-20T08:44:46.926Z,15.55
2019-04-20T08:47:06.116Z,29.20
2019-04-20T08:49:31.072Z,15.32
2019-04-20T08:54:26.659Z,13.45
2019-04-20T08:56:44.836Z,13.50
2019-04-20T08:59:09.710Z,10.30
2019-04-20T09:01:39.470Z,11.75
2019-04-20T09:04:16.300Z,11.55
2019-04-20T09:06:53.402Z,11.18
2019-04-20T09:09:37.912Z,10.25
2019-04-20T09:12:03.250Z,12.93
2019-04-20T09:14:21.428Z,11.35
2019-04-20T09:16:58.778Z,9.45
2019-04-20T09:19:29.927Z,8.13
2019-04-20T09:22:23.305Z,10.90
2019-04-20T09:24:57.659Z,10.72
2019-04-20T09:27:22.825Z,13.05
2019-04-20T09:30:00.601Z,8.63
2019-04-20T09:32:28.653Z,13.85
2019-04-20T09:35:06.682Z,11.65
2019-04-20T09:37:41.392Z,14.03
2019-04-20T09:40:21.196Z,13.90
2019-04-20T09:42:36.493Z,15.30
2019-04-20T09:45:08.285Z,14.98
2019-04-20T09:47:43.560Z,15.00
2019-04-20T09:50:22.363Z,10.95
2019-04-20T09:52:59.121Z,11.90
2019-04-20T09:55:22.117Z,18.73
2019-04-20T09:57:57.627Z,18.30
2019-04-20T10:00:33.317Z,16.70
2019-04-20T10:02:44.543Z,12.55
2019-04-20T10:05:13.629Z,17.37
2019-04-20T10:07:43.960Z,12.00
2019-04-20T10:10:21.474Z,11.75
2019-04-20T10:12:44.018Z,10.15
2019-04-20T10:15:19.003Z,10.65
2019-04-20T10:17:45.595Z,11.97
2019-04-20T10:20:22.158Z,12.50
2019-04-20T10:22:45.052Z,13.58
2019-04-20T10:25:14.969Z,12.63
2019-04-20T10:27:45.340Z,7.17
2019-04-20T10:30:16.592Z,17.10
2019-04-20T10:32:50.381Z,9.08
2019-04-20T10:35:18.573Z,16.62
2019-04-20T10:37:49.335Z,10.20
2019-04-20T10:40:34.623Z,17.45
2019-04-20T10:42:50.146Z,12.98
2019-04-20T10:45:19.103Z,11.70
2019-04-20T10:47:48.331Z,45.73
2019-04-20T10:50:18.756Z,10.00
2019-04-20T10:52:47.772Z,8.98
2019-04-20T10:55:18.593Z,15.15
2019-04-20T10:57:47.740Z,9.78
2019-04-20T11:00:19.666Z,12.55
2019-04-20T11:02:50.479Z,15.05
2019-04-20T11:05:20.292Z,15.90
2019-04-20T11:07:50.510Z,12.98
2019-04-20T11:10:25.391Z,9.28
2019-04-20T11:12:50.512Z,11.50
2019-04-20T11:15:20.816Z,12.70
2019-04-20T11:17:49.693Z,9.70
2019-04-20T11:20:21.430Z,10.15
2019-04-20T11:22:50.553Z,9.48
2019-04-20T11:25:20.108Z,13.72
2019-04-20T11:27:50.036Z,10.98
2019-04-20T11:30:20.274Z,12.10
2019-04-20T11:32:49.291Z,11.45
2019-04-20T11:35:25.444Z,9.15
2019-04-20T11:37:49.223Z,7.20
2019-04-20T11:40:19.133Z,7.20
2019-04-20T11:42:48.234Z,10.48
2019-04-20T11:45:18.437Z,8.98
2019-04-20T11:47:47.951Z,17.87
2019-04-20T11:50:19.731Z,20.62
2019-04-20T11:52:49.975Z,7.92
2019-04-20T11:55:20.180Z,7.60
2019-04-20T11:57:49.452Z,11.28
2019-04-20T12:00:25.102Z,11.83
2019-04-20T12:03:00.317Z,13.45
2019-04-20T12:05:37.167Z,9.43
2019-04-20T12:08:02.989Z,7.85
2019-04-20T12:10:33.166Z,11.75
2019-04-20T12:13:03.702Z,9.83
2019-04-20T12:15:35.638Z,11.28
2019-04-20T12:18:05.220Z,9.25
2019-04-20T12:20:34.607Z,12.33
2019-04-20T12:23:04.316Z,7.92
2019-04-20T12:25:35.063Z,8.15
2019-04-20T12:28:05.297Z,17.10
2019-04-20T12:30:35.486Z,21.82
2019-04-20T12:33:05.816Z,10.75
2019-04-20T12:35:36.108Z,7.90
2019-04-20T12:38:05.607Z,28.20
2019-04-20T12:40:35.439Z,9.00
2019-04-20T12:43:04.734Z,8.10
2019-04-20T12:45:34.029Z,12.23
2019-04-20T12:48:03.765Z,12.00
2019-04-20T12:50:32.902Z,9.18
2019-04-20T12:53:02.320Z,8.60
2019-04-20T12:55:32.553Z,10.80
2019-04-20T12:58:02.838Z,9.23
2019-04-20T13:00:43.599Z,14.15
2019-04-20T13:03:13.710Z,12.43
2019-04-20T13:05:43.593Z,9.55
2019-04-20T13:08:20.882Z,10.05
2019-04-20T13:10:46.510Z,9.45
2019-04-20T13:13:23.231Z,14.47
2019-04-20T13:15:54.314Z,11.75
2019-04-20T13:18:29.558Z,7.62
2019-04-20T13:20:59.696Z,7.65
2019-04-20T13:23:30.923Z,11.73
2019-04-20T13:26:02.244Z,7.28
2019-04-20T13:28:30.781Z,9.93
2019-04-20T13:30:59.771Z,7.10
2019-04-20T13:33:29.542Z,10.65
2019-04-20T13:35:58.546Z,14.45
2019-04-20T13:38:27.935Z,7.60
2019-04-20T13:40:57.755Z,10.35
2019-04-20T13:43:27.974Z,10.55
2019-04-20T13:45:57.207Z,11.15
2019-04-20T13:48:26.734Z,8.83
2019-04-20T13:50:56.051Z,5.83
2019-04-20T13:53:25.550Z,7.45
2019-04-20T13:55:54.815Z,10.23
2019-04-20T13:58:33.836Z,7.37
2019-04-20T14:01:10.831Z,9.20
2019-04-20T14:03:40.743Z,23.75
2019-04-20T14:06:10.857Z,5.72
2019-04-20T14:08:41.296Z,7.97
2019-04-20T14:11:11.375Z,12.78
2019-04-20T14:13:45.028Z,15.95
2019-04-20T14:16:11.326Z,7.03
2019-04-20T14:18:40.967Z,6.70
2019-04-20T14:21:10.430Z,16.77
2019-04-20T14:23:39.126Z,10.68
2019-04-20T14:26:09.205Z,8.30
2019-04-20T14:28:38.801Z,8.10
2019-04-20T14:31:09.868Z,10.20
2019-04-20T14:33:39.138Z,13.15
2019-04-20T14:36:08.765Z,9.68
2019-04-20T14:38:38.309Z,10.82
2019-04-20T14:41:08.507Z,7.15
2019-04-20T14:43:38.587Z,8.15
2019-04-20T14:46:08.526Z,7.20
2019-04-20T14:48:38.580Z,10.00
2019-04-20T14:51:07.718Z,12.20
2019-04-20T14:53:37.767Z,9.38
2019-04-20T14:56:07.378Z,12.13
2019-04-20T14:58:43.257Z,9.80
2019-04-20T15:01:23.132Z,10.53
2019-04-20T15:03:59.933Z,14.30
2019-04-20T15:06:23.347Z,6.47
2019-04-20T15:08:52.666Z,5.05
2019-04-20T15:11:22.895Z,12.58
2019-04-20T15:13:53.087Z,8.58
2019-04-20T15:16:22.525Z,8.58
2019-04-20T15:18:59.903Z,7.22
2019-04-20T15:21:33.575Z,7.47
2019-04-20T15:24:03.675Z,6.12
2019-04-20T15:26:34.154Z,6.25
2019-04-20T15:29:04.427Z,7.30
2019-04-20T15:31:34.331Z,5.83
2019-04-20T15:34:04.571Z,10.03
2019-04-20T15:36:34.104Z,5.62
2019-04-20T15:39:05.144Z,6.47
2019-04-20T15:41:35.707Z,5.60
2019-04-20T15:44:05.224Z,4.33
2019-04-20T15:46:35.305Z,5.55
2019-04-20T15:49:06.155Z,6.83
2019-04-20T15:51:35.465Z,3.95
2019-04-20T15:54:05.290Z,6.08
2019-04-20T15:56:35.454Z,5.10
2019-04-20T15:59:04.453Z,7.58
2019-04-20T16:01:36.873Z,7.95
2019-04-20T16:04:11.764Z,11.68
2019-04-20T16:06:41.199Z,5.95
2019-04-20T16:09:10.718Z,9.35
2019-04-20T16:11:39.561Z,6.33
2019-04-20T16:14:09.080Z,5.42
2019-04-20T16:16:38.074Z,5.62
2019-04-20T16:19:13.671Z,9.18
2019-04-20T16:21:37.594Z,8.85
2019-04-20T16:24:08.872Z,10.85
2019-04-20T16:26:39.951Z,6.55
2019-04-20T16:29:08.948Z,6.03
2019-04-20T16:31:38.415Z,8.33
2019-04-20T16:34:07.866Z,4.80
2019-04-20T16:36:38.756Z,10.20
2019-04-20T16:39:09.700Z,7.58
2019-04-20T16:41:40.233Z,16.23
2019-04-20T16:44:09.481Z,5.95
2019-04-20T16:46:38.509Z,4.35
2019-04-20T16:49:08.462Z,18.87
2019-04-20T16:51:38.730Z,7.42
2019-04-20T16:54:08.171Z,4.80
2019-04-20T16:56:37.254Z,5.40
2019-04-20T16:59:10.274Z,8.48
2019-04-20T17:01:37.197Z,7.58
2019-04-20T17:04:10.658Z,7.83
2019-04-20T17:06:38.474Z,5.90
2019-04-20T17:09:10.000Z,7.58
2019-04-20T17:11:39.492Z,10.00
2019-04-20T17:14:08.587Z,4.78
2019-04-20T17:16:37.632Z,4.08
2019-04-20T17:19:07.742Z,5.17
2019-04-20T17:21:37.345Z,12.37
2019-04-20T17:24:07.182Z,8.85
2019-04-20T17:26:45.128Z,6.03
2019-04-20T17:29:19.949Z,12.10
2019-04-20T17:31:53.619Z,9.10
2019-04-20T17:34:40.855Z,4.78
2019-04-20T17:36:54.633Z,5.62
2019-04-20T17:39:33.912Z,4.35
2019-04-20T17:42:07.452Z,8.50
2019-04-20T17:44:37.218Z,4.22
2019-04-20T17:47:14.036Z,4.80
2019-04-20T17:49:36.806Z,6.40
2019-04-20T17:52:22.252Z,9.58
2019-04-20T17:54:37.775Z,9.93
2019-04-20T17:57:09.080Z,17.50
2019-04-20T17:59:40.056Z,9.28
2019-04-20T18:02:44.426Z,4.20
2019-04-20T18:05:34.261Z,3.83
2019-04-20T18:07:49.799Z,11.93
2019-04-20T18:10:22.584Z,6.22
2019-04-20T18:12:42.290Z,8.78
2019-04-20T18:15:28.166Z,7.00
2019-04-20T18:18:15.422Z,13.88
2019-04-20T18:20:30.506Z,12.35
2019-04-20T18:23:00.526Z,8.75
2019-04-20T18:25:56.275Z,17.75
2019-04-20T18:28:14.603Z,13.60
2019-04-20T18:30:52.533Z,17.12
2019-04-20T18:33:18.832Z,19.20
2019-04-20T18:35:47.585Z,23.60
2019-04-20T18:38:17.031Z,10.70
2019-04-20T18:40:55.995Z,12.05
2019-04-20T18:43:22.244Z,11.73
2019-04-20T18:46:09.244Z,10.40
2019-04-20T18:48:37.927Z,13.15
2019-04-20T18:50:49.045Z,10.50
2019-04-20T18:53:28.655Z,11.45
2019-04-20T18:55:55.486Z,11.18
2019-04-20T18:58:20.399Z,8.98
2019-04-20T19:00:51.679Z,7.53
2019-04-20T19:03:27.586Z,9.40
2019-04-20T19:05:51.402Z,17.20
2019-04-20T19:08:30.299Z,14.73
2019-04-20T19:10:57.586Z,10.35
2019-04-20T19:13:28.656Z,11.53
2019-04-20T19:16:19.807Z,11.28
2019-04-20T19:18:56.026Z,9.25
2019-04-20T19:21:13.138Z,15.68
2019-04-20T19:23:53.555Z,15.85
2019-04-20T19:26:18.202Z,15.28
2019-04-20T19:28:49.479Z,15.10
2019-04-20T19:31:30.847Z,28.67
2019-04-20T19:34:07.191Z,24.65
2019-04-20T19:36:26.312Z,28.45
2019-04-20T19:39:00.874Z,27.95
2019-04-20T19:41:31.979Z,15.75
2019-04-20T19:43:59.140Z,13.98
2019-04-20T19:49:01.066Z,12.15
2019-04-20T19:51:42.497Z,14.68
2019-04-20T19:54:16.498Z,12.25
2019-04-20T19:56:38.818Z,11.55
2019-04-20T19:59:02.986Z,11.70
2019-04-20T20:01:22.285Z,14.65
2019-04-20T20:03:57.534Z,12.75
2019-04-20T20:06:30.542Z,17.95
2019-04-20T20:08:59.015Z,26.07
2019-04-20T20:11:29.460Z,21.42
2019-04-20T20:13:55.357Z,17.62
2019-04-20T20:16:33.632Z,15.95
2019-04-20T20:19:07.387Z,18.87
2019-04-20T20:21:38.593Z,14.15
2019-04-20T20:23:56.327Z,18.65
2019-04-20T20:26:33.550Z,16.82
2019-04-20T20:29:09.487Z,12.65
2019-04-20T20:31:38.410Z,17.10
2019-04-20T20:34:07.589Z,24.37
2019-04-20T20:36:38.353Z,28.62
2019-04-20T20:39:05.905Z,18.12
2019-04-20T20:41:42.940Z,14.90
2019-04-20T20:44:06.947Z,13.45
2019-04-20T20:46:37.830Z,12.20
2019-04-20T20:49:16.606Z,15.32
2019-04-20T20:51:48.527Z,16.95
2019-04-20T20:54:09.876Z,12.78
2019-04-20T20:56:35.804Z,13.98
2019-04-20T20:59:12.546Z,14.20
2019-04-20T21:01:41.409Z,16.25
2019-04-20T21:04:04.800Z,14.78
2019-04-20T21:06:34.772Z,18.40
2019-04-20T21:09:05.094Z,20.50
2019-04-20T21:11:36.110Z,16.80
2019-04-20T21:14:04.838Z,15.70
2019-04-20T21:16:40.168Z,15.00
2019-04-20T21:19:21.449Z,15.10
2019-04-20T21:21:47.519Z,12.80
2019-04-20T21:24:17.677Z,16.87
2019-04-20T21:26:44.302Z,14.47
2019-04-20T21:29:15.537Z,17.17
2019-04-20T21:31:56.978Z,15.70
2019-04-20T21:34:19.847Z,14.75
2019-04-20T21:36:47.289Z,16.70
2019-04-20T21:39:27.543Z,14.00
2019-04-20T21:41:52.941Z,15.58
2019-04-20T21:44:24.404Z,18.00
2019-04-20T21:46:53.755Z,16.65
2019-04-20T21:49:32.990Z,20.85
2019-04-20T21:51:57.288Z,15.90
2019-04-20T21:54:20.178Z,19.48
2019-04-20T21:56:56.323Z,20.72
2019-04-20T21:59:26.955Z,11.63
2019-04-20T22:01:58.504Z,13.15
2019-04-20T22:04:22.904Z,19.95
2019-04-20T22:06:52.107Z,15.83
2019-04-20T22:09:27.117Z,15.58
2019-04-20T22:11:51.925Z,15.55
2019-04-20T22:14:24.030Z,15.55
2019-04-20T22:16:54.799Z,14.45
2019-04-20T22:19:35.903Z,13.22
2019-04-20T22:22:04.292Z,12.82
2019-04-20T22:24:40.962Z,15.85
2019-04-20T22:27:05.395Z,11.18
2019-04-20T22:29:24.147Z,13.95
2019-04-20T22:32:02.684Z,14.43
2019-04-20T22:34:26.057Z,13.60
2019-04-20T22:36:54.190Z,19.85
2019-04-20T22:39:39.303Z,15.08
2019-04-20T22:42:07.375Z,19.80
2019-04-20T22:44:34.048Z,15.10
2019-04-20T22:47:05.497Z,13.98
2019-04-20T22:49:48.205Z,20.23
2019-04-20T22:52:18.510Z,15.63
2019-04-20T22:54:48.882Z,20.90
2019-04-20T22:57:17.707Z,18.12
2019-04-20T22:59:42.164Z,16.75
2019-04-20T23:02:08.101Z,17.52
2019-04-20T23:04:37.117Z,15.83
2019-04-20T23:07:06.058Z,18.67
2019-04-20T23:09:39.463Z,18.48
2019-04-20T23:12:10.124Z,17.80
2019-04-20T23:14:38.323Z,18.17
2019-04-20T23:17:08.336Z,18.57
2019-04-20T23:19:46.647Z,17.73
2019-04-20T23:22:10.294Z,17.05
2019-04-20T23:24:39.334Z,22.00
2019-04-20T23:27:15.369Z,20.92
2019-04-20T23:29:41.613Z,19.98
2019-04-20T23:32:12.551Z,17.85
2019-04-20T23:34:41.045Z,18.95
2019-04-20T23:37:16.159Z,19.00
2019-04-20T23:39:42.990Z,17.40
2019-04-20T23:42:13.029Z,21.30
2019-04-20T23:44:54.292Z,19.12
2019-04-20T23:47:38.649Z,23.38
2019-04-20T23:50:20.933Z,20.48
2019-04-20T23:53:01.327Z,16.50
2019-04-20T23:55:11.941Z,17.60
2019-04-20T23:57:39.733Z,16.93
